Accueil
METAR-TAF:

METAR-TAF

Aéroports :

Aéroport de Maastricht-Aix-la-Chapelle

Maastricht Aix-la-Chapelle, Pays-Bas

latitude: 50-55N, longitude: 005-47E, altitude: 114 m

Observation

Le bulletin a été fait il y a 39 minutes, à 07:25 UTC
Vent 6 kt de nord/nord-est, variant entre nord et est/nord-est
Température 6°C
Humidité 70%
Pression 1026 hPa
Visibilité 10 km ou plus

METAR: EHBK 170725Z AUTO 03006KT 350V070 9999 NSC 06/01 Q1026 NOSIG

Heure: 10:04 (08:04 UTC)

Prévision

Le bulletin a été fait il y a 3 heures et 8 minutes, à 04:56 UTC
Prévision valable du 17 à 06 UTC au 18 à 12 UTC
Vent 8 kt de nord/nord-est
Visibilité 10 km ou plus
pas de nuages en-dessous de 1500 mètres et pas de cumulonimbus.
Probabilité 30% :
Temporairement
du 18 à 05 UTC au 18 à 07 UTC
Visibilité: 5000 m
Nuages fragmentés à une hauteur de 600 ft
brume

TAF: EHBK 170456Z 1706/1812 02008KT CAVOK PROB30 TEMPO 1805/1807 5000 BR BKN006

Observations et prévisions météorologiques de plus de 4000 aéroports (messages METAR et TAF).

Les stations disponibles sont représentées par des disques jaunes et rouges sur la carte.

Passer la souris dessus pour voir le nom de la station.

Cliquer dessus pour voir les observations et prévisions météorologiques.

Pour changer de carte: cliquez sur les boutons verts avec une croix noire pour zoomer, sur le bouton vert avec un tiret pour effectuer un zoom arrière, ou sur les flèches vertes pour les cartes adjacentes.


METAR-TAF: